Flight Track Log - Related Links

Times and Time Zones

All times are in EDT time to prevent confusion due to time zone crossing. See the SWA3608 flight status page for this flight to view local times or setup timezone preferences in your user account.

Time Position Orientation Groundspeed Altitude Reporting Facility
EDT Latitude Longitude Course Direction KTS MPH feet Rate Location/Type
Sat 12:20:12 AM 32.0558 -110.8897 150° Southeast 193 222 5,900  Level Albuquerque Center
Sat 12:20:41 AM 32.0450 -110.9144 243° Southwest 216 249 7,000 2,459 Climbing Albuquerque Center
Sat 12:21:13 AM 32.0558 -110.9553 287° West 231 266 8,400 2,656 Climbing Albuquerque Center
Sat 12:21:42 AM 32.0769 -110.9869 308° West 254 292 9,700 3,133 Climbing Albuquerque Center
Sat 12:22:43 AM 32.1222 -111.0706 303° West 290 334 13,100 3,344 Climbing Albuquerque Center
Sat 12:23:44 AM 32.1744 -111.1686 302° West 338 389 16,500 3,246 Climbing Albuquerque Center
Sat 12:24:45 AM 32.2297 -111.2722 302° West 365 420 19,700 3,148 Climbing Albuquerque Center
Sat 12:25:46 AM 32.2881 -111.3831 302° West 387 445 22,900 2,951 Climbing Albuquerque Center
Sat 12:26:47 AM 32.3478 -111.4961 302° West 400 460 25,700 2,607 Climbing Albuquerque Center
Sat 12:27:48 AM 32.4086 -111.6122 302° West 410 472 28,200 2,361 Climbing Albuquerque Center
Sat 12:28:49 AM 32.4700 -111.7319 301° West 421 484 30,500 2,182 Climbing Albuquerque Center
Sat 12:29:49 AM 32.5322 -111.8528 301° West 426 490 32,600 2,033 Climbing Albuquerque Center
Sat 12:30:50 AM 32.5958 -111.9711 303° West 426 490 34,600 1,967 Climbing Albuquerque Center
Sat 12:31:51 AM 32.6578 -112.0919 301° West 427 491 36,600 1,721 Climbing Albuquerque Center
Sat 12:32:52 AM 32.7192 -112.2097 302° West 423 487 38,100 1,377 Climbing Albuquerque Center
Sat 12:33:53 AM 32.7800 -112.3292 301° West 422 486 39,400 942 Climbing Albuquerque Center
Sat 12:34:53 AM 32.8411 -112.4469 302° West 421 484 40,000 248 Climbing Albuquerque Center
Sat 12:35:54 AM 32.9128 -112.5883 301° West 419 482 39,900  Descending Albuquerque Center
Sat 12:36:55 AM 32.9753 -112.7008 304° West 415 478 40,000 50 Climbing Albuquerque Center
Sat 12:37:55 AM 33.0531 -112.8006 313° West 412 474 40,000  Level Albuquerque Center
Sat 12:38:56 AM 33.1289 -112.9019 312° West 413 475 40,000  Level Albuquerque Center
Sat 12:39:57 AM 33.2067 -113.0039 312° West 416 479 40,000  Level Albuquerque Center
Sat 12:40:58 AM 33.2850 -113.1100 311° West 423 487 40,000  Level Albuquerque Center
Sat 12:41:58 AM 33.3639 -113.2131 313° West 423 487 40,000  Level Albuquerque Center
Sat 12:42:59 AM 33.4406 -113.3161 312° West 418 481 40,000 -49 Level Albuquerque Center
Sat 12:44:00 AM 33.5167 -113.4192 312° West 415 478 39,900 -1,082 Descending Albuquerque Center
Sat 12:45:01 AM 33.5900 -113.5192 311° West 406 467 37,800 -2,430 Descending Albuquerque Center
Sat 12:46:01 AM 33.6672 -113.6208 312° West 390 449 35,000 -1,884 Descending Albuquerque Center
Sat 12:47:02 AM 33.7419 -113.7217 312° West 398 458 34,000 -492 Descending Albuquerque Center
Sat 12:48:03 AM 33.8092 -113.8333 306° West 410 472 34,000  Level Albuquerque Center
Sat 12:49:03 AM 33.8556 -113.9617 294° West 418 481 34,000  Level Albuquerque Center
Sat 12:50:04 AM 33.8856 -114.0997 285° West 425 489 34,000  Level Albuquerque Center
Sat 12:51:05 AM 33.9058 -114.2569 279° West 429 494 34,000  Level Albuquerque Center
Sat 12:52:06 AM 33.9258 -114.3958 280° West 425 489 34,000 -298 Level Albuquerque Center
Sat 12:53:06 AM 33.9444 -114.5283 280° West 410 472 33,400 -960 Descending Albuquerque Center
Sat 12:54:11 AM 33.9650 -114.6686 280° West 391 450 32,000 -661 Descending Los Angeles Center
Sat 12:55:13 AM 33.9822 -114.7969 279° West 389 448 32,000  Level Los Angeles Center
Sat 12:56:14 AM 34.0008 -114.9256 280° West 391 450 32,000  Level Los Angeles Center
Sat 12:57:15 AM 34.0183 -115.0542 279° West 391 450 32,000  Level Los Angeles Center
Sat 12:58:17 AM 34.0356 -115.1817 279° West 389 448 32,000  Level Los Angeles Center
Sat 12:59:18 AM 34.0528 -115.3103 279° West 390 449 32,000  Level Los Angeles Center
Sat 01:00:19 AM 34.0736 -115.4672 279° West 395 455 32,000 -49 Level Los Angeles Center
Sat 01:01:21 AM 34.0900 -115.5989 279° West 397 457 31,900 -585 Descending Los Angeles Center
Sat 01:02:22 AM 34.1067 -115.7297 279° West 397 457 30,800 -1,033 Descending Los Angeles Center
Sat 01:03:23 AM 34.0994 -115.8611 266° West 398 458 29,800 -976 Descending Los Angeles Center
Sat 01:04:25 AM 34.0789 -115.9919 259° West 400 460 28,800 -976 Descending Los Angeles Center
Sat 01:05:26 AM 34.0606 -116.1225 260° West 397 457 27,800 -984 Descending Los Angeles Center
Sat 01:06:27 AM 34.0406 -116.2478 259° West 386 444 26,800 -934 Descending Los Angeles Center
Sat 01:07:28 AM 34.0222 -116.3753 260° West 388 447 25,900 -927 Descending Los Angeles Center
Sat 01:08:30 AM 34.0036 -116.5053 260° West 396 456 24,900 -1,073 Descending Los Angeles Center
Sat 01:09:31 AM 33.9919 -116.6586 265° West 386 444 23,700 -1,426 Descending Los Angeles Center
Sat 01:10:32 AM 33.9819 -116.7822 264° West 375 432 22,000 -1,900 Descending Los Angeles Center
Sat 01:11:31 AM 33.9667 -116.9000 261° West 350 403 19,900 -2,067 Descending Southern California TRACON
Sat 01:12:31 AM 33.9667 -117.0167 270° West 338 389 17,900 -1,450 Descending Southern California TRACON
Sat 01:13:31 AM 33.9500 -117.1333 260° West 327 376 17,000 -500 Descending Southern California TRACON
Sat 01:14:31 AM 33.9500 -117.2333 270° West 314 361 16,900 -750 Descending Southern California TRACON
Sat 01:15:31 AM 33.9333 -117.3333 259° West 304 350 15,500 -1,550 Descending Southern California TRACON
Sat 01:16:31 AM 33.9500 -117.4333 281° West 289 333 13,800 -1,750 Descending Southern California TRACON
Sat 01:17:31 AM 33.9833 -117.5167 296° West 316 364 12,000 -1,700 Descending Southern California TRACON
Sat 01:18:31 AM 34.0167 -117.6167 292° West 379 436 10,400 -1,100 Descending Southern California TRACON
Sat 01:19:31 AM 34.0167 -117.7167 270° West 267 307 9,800 -947 Descending Southern California TRACON
Sat 01:20:25 AM 34.0167 -117.8000 270° West 268 308 8,600 -1,316 Descending Southern California TRACON
Sat 01:21:25 AM 34.0000 -117.9000 259° West 274 315 7,300 -1,150 Descending Southern California TRACON
Sat 01:22:25 AM 34.0000 -117.9833 270° West 256 295 6,300 -900 Descending Southern California TRACON
Sat 01:23:25 AM 33.9833 -118.0500 253° West 220 253 5,500 -750 Descending Southern California TRACON
Sat 01:24:25 AM 33.9833 -118.1167 270° West 192 221 4,800 -776 Descending Southern California TRACON
Sat 01:24:50 AM 33.9783 -118.1450 258° West 198 228 4,400 -977 Descending Los Angeles Center
Sat 01:25:51 AM 33.9722 -118.2075 263° West 191 220 3,400 -1,033 Descending Los Angeles Center
Sat 01:26:52 AM 33.9664 -118.2697 264° West 189 217 2,300 -984 Descending Los Angeles Center
Sat 01:27:53 AM 33.9606 -118.3242 263° West 176 203 1,400 -780 Descending Los Angeles Center
Sat 01:28:55 AM 33.9569 -118.3681 264° West 147 169 700 -585 Descending Los Angeles Center
Sat 01:29:56 AM 33.9531 -118.4150 264° West 138 159 200 -492 Descending Los Angeles Center
Sat 01:31:00 AM 33.9425 -118.4081 180° South  Level Estimated
Sat 01:38:00 AM 33.9425 -118.4081 180° South  Level Estimated

Login

Don't have an account? Register now (free) for customized features, flight alerts, and more!